Time;durP1;ratioP1;P1;durP2;ratioP2;P2;SDS_P1;SDS_P2;PMS_P1;PMS_P2;Temp;Humidity;BMP_temperature;BMP_pressure;BME280_temperature;BME280_humidity;BME280_pressure;Samples;Min_cycle;Max_cycle;Signal;HPM_P1;HPM_P2
2021/12/09 00:01:23;;;;;;;43.20;16.23;;;;;;;0.50;94.02;100025.01;125188;1102;104127;-81
2021/12/09 00:03:59;;;;;;;37.50;15.47;;;;;;;0.49;94.38;100030.95;125156;1102;104178;-82
2021/12/09 00:06:31;;;;;;;47.97;18.00;;;;;;;0.46;94.13;100038.48;125183;1102;105458;-82
2021/12/09 00:09:07;;;;;;;49.80;18.93;;;;;;;0.45;94.21;100037.60;125155;1102;104145;-81
2021/12/09 00:11:45;;;;;;;57.73;20.73;;;;;;;0.45;94.58;100035.02;125061;1102;104204;-81
2021/12/09 00:14:21;;;;;;;45.97;18.00;;;;;;;0.45;94.18;100049.59;125222;1102;104200;-81
2021/12/09 00:16:56;;;;;;;45.35;17.80;;;;;;;0.46;94.25;100046.23;125218;1102;104165;-83
2021/12/09 00:19:28;;;;;;;57.73;21.77;;;;;;;0.46;94.05;100043.65;125162;1102;104207;-82
2021/12/09 00:22:01;;;;;;;59.95;22.15;;;;;;;0.49;94.32;100046.44;125070;1102;104210;-82
2021/12/09 00:24:34;;;;;;;49.77;19.92;;;;;;;0.50;94.19;100059.45;125233;1102;104251;-80
2021/12/09 00:27:08;;;;;;;52.87;20.70;;;;;;;0.48;94.13;100054.97;125086;1102;104204;-82
2021/12/09 00:29:41;;;;;;;52.73;19.13;;;;;;;0.49;94.23;100056.77;125211;1102;104232;-81
2021/12/09 00:32:14;;;;;;;57.57;22.67;;;;;;;0.49;94.14;100057.65;125125;1102;104185;-82
2021/12/09 00:34:51;;;;;;;54.93;21.90;;;;;;;0.48;94.29;100054.97;125119;1102;104322;-82
2021/12/09 00:37:28;;;;;;;55.12;20.30;;;;;;;0.47;94.22;100050.61;125233;1102;104222;-81
2021/12/09 00:40:03;;;;;;;57.87;22.23;;;;;;;0.49;94.01;100049.91;125093;1102;104329;-82
2021/12/09 00:42:35;;;;;;;57.00;21.77;;;;;;;0.48;94.04;100050.72;125205;1102;104297;-82
2021/12/09 00:45:08;;;;;;;51.07;20.10;;;;;;;0.48;94.34;100050.72;125201;1102;104309;-83
2021/12/09 00:47:45;;;;;;;60.73;22.97;;;;;;;0.48;94.00;100050.72;125183;1102;104158;-82
2021/12/09 00:50:22;;;;;;;58.77;21.97;;;;;;;0.50;94.05;100045.66;125140;1102;104258;-82
2021/12/09 00:52:54;;;;;;;50.63;19.87;;;;;;;0.51;94.54;100039.69;125180;1102;104183;-82
2021/12/09 00:55:27;;;;;;;45.47;18.87;;;;;;;0.51;94.08;100045.77;125242;1102;104175;-81
2021/12/09 00:57:59;;;;;;;68.97;24.77;;;;;;;0.50;94.19;100037.91;125249;1102;104149;-82
2021/12/09 01:00:31;;;;;;;46.70;18.93;;;;;;;0.47;94.19;100040.28;125160;1102;104342;-82
2021/12/09 01:03:03;;;;;;;60.73;23.47;;;;;;;0.47;94.15;100045.45;126298;1099;104245;-82
2021/12/09 01:05:35;;;;;;;48.07;19.83;;;;;;;0.46;93.99;100048.81;126303;1099;104205;-81
2021/12/09 01:08:18;;;;;;;61.00;23.53;;;;;;;0.46;94.21;100035.91;126361;1099;104188;-81
2021/12/09 01:10:51;;;;;;;53.43;21.17;;;;;;;0.46;93.83;100047.12;126315;1099;104162;-81
2021/12/09 01:13:23;;;;;;;;;;;;;;;0.48;94.00;100048.14;126333;1099;104255;-82
2021/12/09 01:15:55;;;;;;;59.87;21.97;;;;;;;0.48;93.87;100045.55;126368;1099;104153;-82
2021/12/09 01:18:29;;;;;;;63.00;24.87;;;;;;;0.48;93.79;100052.38;125613;1099;104078;-81
2021/12/09 01:21:01;;;;;;;64.90;23.37;;;;;;;0.46;94.41;100051.39;126126;1099;104339;-82
2021/12/09 01:23:36;;;;;;;58.17;22.57;;;;;;;0.44;94.02;100048.70;126211;1098;105204;-82
2021/12/09 01:26:18;;;;;;;60.73;23.97;;;;;;;0.43;93.89;100052.06;126201;1099;104143;-81
2021/12/09 01:29:14;;;;;;;68.57;24.57;;;;;;;0.43;94.24;100057.23;126025;1098;104143;-82
2021/12/09 01:32:34;;;;;;;;;;;;;;;;;;;;;
2021/12/09 01:35:17;;;;;;;58.43;24.10;;;;;;;0.42;93.81;100060.63;125326;1102;104182;-82
2021/12/09 01:37:56;;;;;;;62.93;22.90;;;;;;;0.42;93.98;100058.05;125237;1102;104262;-82
2021/12/09 01:40:46;;;;;;;58.53;21.43;;;;;;;0.42;94.15;100062.28;125199;1102;104172;-80
2021/12/09 01:43:43;;;;;;;51.23;20.93;;;;;;;0.43;94.11;100066.67;125266;1102;104192;-81
2021/12/09 01:46:22;;;;;;;53.57;21.20;;;;;;;0.42;94.02;100067.45;125243;1102;104153;-82
2021/12/09 01:49:02;;;;;;;54.27;20.70;;;;;;;0.42;94.38;100068.37;125023;1102;104896;-82
2021/12/09 01:51:41;;;;;;;57.47;22.17;;;;;;;0.43;94.32;100071.83;125300;1102;104264;-81
2021/12/09 01:54:40;;;;;;;63.57;24.13;;;;;;;0.42;94.25;100070.03;125240;1102;104156;-81
2021/12/09 01:57:14;;;;;;;60.87;23.00;;;;;;;0.45;93.97;100077.98;125296;1102;104240;-81
2021/12/09 01:59:51;;;;;;;52.97;21.97;;;;;;;0.44;93.96;100071.05;125237;1103;104287;-81
2021/12/09 02:02:22;;;;;;;59.63;23.20;;;;;;;0.44;93.85;100089.13;125253;1102;104190;-82
2021/12/09 02:04:54;;;;;;;68.20;25.77;;;;;;;0.45;93.87;100088.31;125272;1101;104300;-82
2021/12/09 02:07:29;;;;;;;65.83;24.03;;;;;;;0.46;94.10;100091.00;125303;1102;104150;-81
2021/12/09 02:10:04;;;;;;;64.77;25.53;;;;;;;0.45;93.60;100088.31;125243;1099;104183;-82
2021/12/09 02:12:37;;;;;;;62.63;25.33;;;;;;;0.46;93.65;100092.70;126205;1099;108547;-82
2021/12/09 02:15:10;;;;;;;61.87;24.40;;;;;;;0.45;93.81;100091.81;126366;1099;104185;-81
2021/12/09 02:17:45;;;;;;;55.87;22.67;;;;;;;0.44;94.25;100087.42;126297;1099;104296;-82
2021/12/09 02:20:19;;;;;;;61.17;22.87;;;;;;;0.44;94.05;100087.42;126353;1099;104152;-82
2021/12/09 02:22:51;;;;;;;52.57;20.53;;;;;;;0.43;94.12;100087.33;126357;1099;104172;-82
2021/12/09 02:25:23;;;;;;;60.43;21.73;;;;;;;0.41;93.81;100088.91;126347;1098;104188;-83
2021/12/09 02:27:55;;;;;;;62.00;24.07;;;;;;;0.43;94.24;100089.91;126357;1099;104155;-83
2021/12/09 02:30:27;;;;;;;73.27;25.50;;;;;;;0.44;94.03;100090.02;126280;1099;104194;-82
2021/12/09 02:32:58;;;;;;;70.63;25.40;;;;;;;0.45;93.75;100089.23;126353;1099;104140;-82
2021/12/09 02:35:30;;;;;;;65.93;24.13;;;;;;;0.44;93.68;100090.02;126371;1099;104146;-83
2021/12/09 02:38:03;;;;;;;61.67;23.70;;;;;;;0.45;93.88;100093.48;126341;1099;104226;-83
2021/12/09 02:40:35;;;;;;;49.57;20.37;;;;;;;0.45;93.87;100101.22;126376;1099;104580;-82
2021/12/09 02:43:08;;;;;;;59.93;22.20;;;;;;;0.45;94.21;100098.64;126248;1099;119704;-83
2021/12/09 02:45:42;;;;;;;57.40;23.20;;;;;;;0.45;94.22;100098.64;126362;1099;104158;-84
2021/12/09 02:48:19;;;;;;;58.65;23.50;;;;;;;0.45;93.54;100102.14;126337;1099;104146;-83
2021/12/09 02:50:56;;;;;;;52.57;21.00;;;;;;;0.42;93.65;100099.34;126304;1099;104194;-82
2021/12/09 02:53:28;;;;;;;65.97;26.30;;;;;;;0.42;93.92;100098.42;126320;1099;104248;-82
2021/12/09 02:56:05;;;;;;;64.13;25.43;;;;;;;0.43;93.88;100107.97;126323;1099;104146;-82
2021/12/09 02:58:38;;;;;;;64.90;26.67;;;;;;;0.43;93.87;100100.23;126312;1099;104284;-83
2021/12/09 03:01:15;;;;;;;61.03;24.43;;;;;;;0.46;93.96;100108.19;126353;1099;104294;-82
2021/12/09 03:03:59;;;;;;;65.90;25.70;;;;;;;0.46;93.96;100110.77;126307;1099;109541;-82
2021/12/09 03:06:38;;;;;;;55.80;23.90;;;;;;;0.44;93.83;100120.98;126385;1099;104245;-82
2021/12/09 03:09:09;;;;;;;;;;;;;;;0.45;93.87;100127.95;126369;1099;104229;-82
2021/12/09 03:11:41;;;;;;;80.67;27.77;;;;;;;0.48;93.59;100127.25;126304;1098;104271;-82
2021/12/09 03:14:13;;;;;;;84.60;29.87;;;;;;;0.51;94.01;100125.80;126341;1099;104153;-83
2021/12/09 03:16:46;;;;;;;81.53;28.73;;;;;;;0.54;94.09;100135.42;126361;1099;104166;-82
2021/12/09 03:19:20;;;;;;;77.57;26.90;;;;;;;0.55;94.18;100139.81;126359;1099;104158;-82
2021/12/09 03:21:52;;;;;;;84.27;29.40;;;;;;;0.55;93.64;100144.97;126344;1099;104345;-82
2021/12/09 03:24:28;;;;;;;60.58;23.75;;;;;;;0.56;93.74;100138.11;126279;1099;107152;-82
2021/12/09 03:27:09;;;;;;;77.67;28.60;;;;;;;0.53;93.77;100141.37;126356;1098;104168;-82
2021/12/09 03:29:47;;;;;;;55.73;22.33;;;;;;;0.53;93.73;100141.37;126348;1099;104222;-80
2021/12/09 03:32:22;;;;;;;71.43;25.90;;;;;;;0.53;93.95;100151.70;126285;1099;104146;-81
2021/12/09 03:34:56;;;;;;;81.97;29.13;;;;;;;0.53;93.94;100157.77;126372;1099;104229;-81
2021/12/09 03:37:31;;;;;;;78.83;28.03;;;;;;;0.56;93.70;100153.61;126356;1099;104193;-83
2021/12/09 03:40:04;;;;;;;70.73;25.23;;;;;;;0.55;93.85;100160.47;126351;1098;104287;-83
2021/12/09 03:42:36;;;;;;;66.50;27.23;;;;;;;0.54;93.55;100164.70;126319;1099;104155;-82
2021/12/09 03:45:10;;;;;;;70.73;25.97;;;;;;;0.56;93.80;100169.98;126243;1099;104302;-81
2021/12/09 03:47:44;;;;;;;106.67;33.77;;;;;;;0.57;93.48;100168.32;126219;1099;104400;-82
2021/12/09 03:50:18;;;;;;;101.40;33.53;;;;;;;0.60;93.94;100174.58;126188;1099;104395;-82
2021/12/09 03:52:49;;;;;;;100.45;32.17;;;;;;;0.59;93.73;100175.36;126178;1099;104155;-83
2021/12/09 03:55:21;;;;;;;113.90;33.97;;;;;;;0.62;93.86;100183.32;126201;1099;104178;-82
2021/12/09 03:57:59;;;;;;;102.17;32.23;;;;;;;0.62;93.45;100185.91;126263;1099;104198;-82
2021/12/09 04:00:31;;;;;;;116.77;35.17;;;;;;;0.61;93.90;100181.55;126221;1099;104175;-83
2021/12/09 04:03:06;;;;;;;122.00;37.23;;;;;;;0.66;93.59;100190.51;126184;1099;104155;-81
2021/12/09 04:05:38;;;;;;;116.40;34.80;;;;;;;0.70;94.00;100194.19;126190;1099;104896;-82
2021/12/09 04:08:10;;;;;;;123.80;36.30;;;;;;;0.69;93.69;100198.47;125411;1099;104456;-82
2021/12/09 04:10:42;;;;;;;119.17;35.43;;;;;;;0.71;93.68;100199.47;126223;1099;104191;-83
2021/12/09 04:13:14;;;;;;;129.73;37.37;;;;;;;0.73;93.51;100203.85;126170;1099;104255;-83
2021/12/09 04:15:46;;;;;;;112.83;31.60;;;;;;;0.75;93.57;100204.84;126153;1099;104208;-82
2021/12/09 04:18:17;;;;;;;116.20;35.00;;;;;;;0.70;93.51;100205.44;126357;1099;104143;-82
2021/12/09 04:20:49;;;;;;;86.23;28.07;;;;;;;0.70;93.52;100213.19;126353;1099;104264;-82
2021/12/09 04:23:21;;;;;;;116.57;34.83;;;;;;;0.68;93.51;100219.02;126283;1099;104300;-82
2021/12/09 04:25:52;;;;;;;94.17;28.73;;;;;;;0.66;93.91;100224.08;126371;1099;104332;-82
2021/12/09 04:28:27;;;;;;;114.77;32.80;;;;;;;0.64;93.27;100223.09;126311;1099;104229;-82
2021/12/09 04:30:59;;;;;;;110.37;31.80;;;;;;;0.63;93.53;100230.73;126351;1099;104585;-82
2021/12/09 04:33:31;;;;;;;108.90;29.87;;;;;;;0.64;93.40;100235.08;126302;1097;104153;-83
2021/12/09 04:36:03;;;;;;;97.87;31.37;;;;;;;0.63;93.69;100234.19;126389;1099;104162;-82
2021/12/09 04:38:35;;;;;;;103.40;31.90;;;;;;;0.65;93.70;100242.05;126348;1099;104341;-82
2021/12/09 04:41:06;;;;;;;101.53;32.73;;;;;;;0.63;93.88;100235.89;126264;1099;104248;-82
2021/12/09 04:43:40;;;;;;;119.77;35.30;;;;;;;0.63;93.86;100236.78;126289;1099;105605;-81
2021/12/09 04:46:12;;;;;;;109.83;33.33;;;;;;;0.65;93.71;100235.19;126288;1098;104149;-83
2021/12/09 04:48:44;;;;;;;121.37;36.27;;;;;;;0.65;94.12;100242.05;126324;1099;104252;-81
2021/12/09 04:51:15;;;;;;;90.23;28.77;;;;;;;0.63;93.92;100234.19;126335;1099;104307;-81
2021/12/09 04:53:46;;;;;;;100.20;30.87;;;;;;;0.62;93.84;100240.13;126310;1099;104152;-82
2021/12/09 04:56:18;;;;;;;80.63;28.33;;;;;;;0.62;93.43;100241.83;126337;1097;104143;-82
2021/12/09 04:58:50;;;;;;;100.70;32.63;;;;;;;0.61;93.66;100235.78;126358;1099;104220;-82
2021/12/09 05:01:21;;;;;;;100.00;31.63;;;;;;;0.63;93.96;100236.78;126379;1099;104385;-81
2021/12/09 05:03:53;;;;;;;98.90;31.20;;;;;;;0.62;93.99;100247.88;126368;1099;104265;-82
2021/12/09 05:06:24;;;;;;;90.47;27.90;;;;;;;0.62;93.82;100249.58;126202;1099;108223;-82
2021/12/09 05:08:55;;;;;;;91.37;29.80;;;;;;;0.62;93.67;100254.74;126333;1099;104204;-82
2021/12/09 05:11:47;;;;;;;77.87;25.47;;;;;;;0.61;93.83;100253.86;126346;1099;104200;-83
2021/12/09 05:14:21;;;;;;;97.80;32.00;;;;;;;0.64;93.93;100260.91;126310;1099;104146;-82
2021/12/09 05:16:55;;;;;;;101.90;31.87;;;;;;;0.62;93.93;100270.23;126312;1098;117786;-82
2021/12/09 05:19:27;;;;;;;92.20;29.10;;;;;;;0.62;94.18;100272.81;126274;1099;104172;-82
2021/12/09 05:21:59;;;;;;;102.30;31.70;;;;;;;0.61;93.74;100268.43;126324;1099;104192;-82
2021/12/09 05:24:34;;;;;;;101.97;31.63;;;;;;;0.62;93.70;100271.13;126271;1099;104280;-82
2021/12/09 05:27:06;;;;;;;97.17;30.53;;;;;;;0.63;93.97;100275.52;126262;1099;104175;-81
2021/12/09 05:29:40;;;;;;;89.47;28.60;;;;;;;0.62;93.81;100272.81;126266;1099;104149;-82
2021/12/09 05:32:16;;;;;;;86.47;28.57;;;;;;;0.63;93.83;100283.25;126120;1099;104255;-82
2021/12/09 05:34:50;;;;;;;94.23;29.50;;;;;;;0.65;93.84;100276.51;126176;1098;104670;-82
2021/12/09 05:37:24;;;;;;;79.27;27.58;;;;;;;0.68;93.64;100275.84;126038;1099;109514;-82
2021/12/09 05:39:59;;;;;;;94.65;30.30;;;;;;;0.69;93.85;100273.37;126131;1099;104150;-81
2021/12/09 05:42:31;;;;;;;89.97;26.20;;;;;;;0.71;93.78;100276.95;126268;1099;104241;-82
2021/12/09 05:45:03;;;;;;;84.03;28.60;;;;;;;0.73;93.63;100281.33;126039;1099;104156;-82
2021/12/09 05:47:36;;;;;;;85.13;29.07;;;;;;;0.72;93.53;100275.28;126032;1099;104230;-81
2021/12/09 05:50:11;;;;;;;90.03;29.57;;;;;;;0.75;93.78;100275.50;126255;1099;104249;-81
2021/12/09 05:52:42;;;;;;;90.83;29.23;;;;;;;0.78;93.96;100282.55;126029;1099;104149;-81
2021/12/09 05:55:15;;;;;;;94.37;30.00;;;;;;;0.79;93.73;100295.57;126152;1099;104248;-81
2021/12/09 05:57:51;;;;;;;99.92;32.70;;;;;;;0.80;93.86;100301.66;126086;1099;106977;-81
2021/12/09 06:00:26;;;;;;;86.93;28.90;;;;;;;0.78;93.65;100292.88;126063;1099;105475;-81
2021/12/09 06:03:01;;;;;;;73.60;26.57;;;;;;;0.79;93.74;100310.19;126024;1099;104214;-79
2021/12/09 06:05:37;;;;;;;80.37;27.87;;;;;;;0.77;93.13;100311.77;126158;1099;104229;-81
2021/12/09 06:08:12;;;;;;;80.17;26.43;;;;;;;0.78;93.78;100318.71;126288;1099;117869;-80
2021/12/09 06:10:44;;;;;;;81.70;27.10;;;;;;;0.77;93.90;100306.61;126268;1099;104259;-81
2021/12/09 06:13:17;;;;;;;80.87;28.13;;;;;;;0.79;93.71;100315.35;126148;1099;104224;-81
2021/12/09 06:15:50;;;;;;;73.67;25.97;;;;;;;0.80;94.16;100314.58;126152;1099;104162;-81
2021/12/09 06:18:22;;;;;;;81.67;27.23;;;;;;;0.81;93.83;100317.27;126008;1099;104274;-81
2021/12/09 06:20:56;;;;;;;75.90;27.43;;;;;;;0.82;93.96;100325.91;126223;1098;104216;-81
2021/12/09 06:23:29;;;;;;;90.00;29.12;;;;;;;0.84;93.86;100326.90;126169;1099;104298;-80
2021/12/09 06:26:01;;;;;;;80.28;27.02;;;;;;;0.86;93.61;100331.40;126219;1099;104310;-79
2021/12/09 06:28:34;;;;;;;68.43;24.40;;;;;;;0.85;93.85;100326.13;125421;1099;104182;-79
2021/12/09 06:31:14;;;;;;;81.00;28.87;;;;;;;0.83;94.42;100325.13;125945;1099;104329;-80
2021/12/09 06:33:46;;;;;;;67.10;24.70;;;;;;;0.80;93.64;100327.48;125911;1099;104163;-80
2021/12/09 06:36:19;;;;;;;82.70;28.87;;;;;;;0.82;93.97;100329.38;125270;1099;104275;-80
2021/12/09 06:38:52;;;;;;;86.12;29.18;;;;;;;0.83;93.89;100340.62;125876;1099;104370;-78
2021/12/09 06:41:24;;;;;;;79.77;27.93;;;;;;;0.86;94.27;100341.73;125786;1099;104307;-79
2021/12/09 06:43:57;;;;;;;80.43;29.13;;;;;;;0.89;93.84;100338.48;125770;1099;104661;-79
2021/12/09 06:46:29;;;;;;;84.00;27.03;;;;;;;0.91;93.54;100342.06;125308;1099;104374;-79
2021/12/09 06:49:00;;;;;;;73.90;27.80;;;;;;;0.92;93.87;100327.45;125259;1099;104315;-79
2021/12/09 06:51:33;;;;;;;66.40;25.40;;;;;;;0.95;93.66;100338.00;125819;1099;104299;-79
2021/12/09 06:54:07;;;;;;;73.10;26.77;;;;;;;0.96;93.62;100340.70;125835;1099;104208;-79
2021/12/09 06:56:39;;;;;;;68.37;25.30;;;;;;;0.95;93.65;100346.67;125705;1099;102391;-79
2021/12/09 06:59:15;;;;;;;73.80;27.80;;;;;;;0.96;93.75;100339.81;125658;1099;120025;-77
2021/12/09 07:01:48;;;;;;;64.17;25.00;;;;;;;1.01;93.66;100336.77;125788;1099;104386;-76
2021/12/09 07:04:20;;;;;;;66.53;25.90;;;;;;;1.05;93.02;100337.88;125909;1099;104169;-78
2021/12/09 07:06:54;;;;;;;79.97;30.00;;;;;;;1.07;93.30;100337.17;126002;1099;104335;-80
2021/12/09 07:09:29;;;;;;;75.70;29.00;;;;;;;1.11;93.75;100345.15;125822;1099;104172;-79
2021/12/09 07:12:03;;;;;;;86.03;31.80;;;;;;;1.14;93.44;100348.87;125967;1097;104393;-79
2021/12/09 07:14:36;;;;;;;88.27;30.50;;;;;;;1.16;93.94;100338.64;125810;1099;104245;-80
2021/12/09 07:17:08;;;;;;;84.33;30.93;;;;;;;1.17;93.86;100353.34;125845;1099;104182;-79
2021/12/09 07:19:50;;;;;;;86.60;29.95;;;;;;;1.19;93.36;100354.36;126044;1099;110624;-81
2021/12/09 07:22:23;;;;;;;97.50;32.10;;;;;;;1.25;93.73;100347.05;125926;1099;104224;-79
2021/12/09 07:25:01;;;;;;;101.50;33.13;;;;;;;1.32;93.62;100351.83;125917;1099;104436;-79
2021/12/09 07:27:33;;;;;;;82.80;25.83;;;;;;;1.37;93.92;100349.57;125865;1099;104182;-78
2021/12/09 07:30:07;;;;;;;81.20;27.07;;;;;;;1.35;93.55;100348.58;125895;1099;104220;-78
2021/12/09 07:32:38;;;;;;;;;;;;;;;1.35;93.77;100346.88;126058;1099;104248;-78
2021/12/09 07:35:12;;;;;;;95.90;31.47;;;;;;;1.34;93.72;100350.28;126080;1099;104576;-78
2021/12/09 07:37:46;;;;;;;103.30;33.25;;;;;;;1.39;94.01;100358.36;125987;1099;104216;-79
2021/12/09 07:40:21;;;;;;;107.37;33.60;;;;;;;1.43;94.05;100356.09;126025;1099;107071;-80
2021/12/09 07:42:57;;;;;;;113.53;33.97;;;;;;;1.46;93.24;100362.26;126024;1099;104258;-79
2021/12/09 07:45:34;;;;;;;105.17;34.70;;;;;;;1.54;94.38;100363.67;126139;1097;104175;-80
2021/12/09 07:48:07;;;;;;;93.40;31.13;;;;;;;1.59;93.79;100367.47;126025;1099;104194;-80
2021/12/09 07:50:43;;;;;;;90.47;29.37;;;;;;;1.60;93.19;100369.28;126074;1099;104205;-80
2021/12/09 07:53:17;;;;;;;99.87;31.43;;;;;;;1.63;93.67;100360.84;125934;1098;104321;-80
2021/12/09 07:55:51;;;;;;;;;;;;;;;1.66;93.39;100364.53;125972;1099;102404;-80
2021/12/09 07:58:24;;;;;;;98.90;31.48;;;;;;;1.67;93.40;100368.00;125991;1099;101806;-81
2021/12/09 08:00:59;;;;;;;108.27;34.37;;;;;;;1.73;93.47;100365.84;125978;1099;104274;-83
2021/12/09 08:03:35;;;;;;;86.37;30.87;;;;;;;1.78;93.73;100365.38;125825;1099;104230;-80
2021/12/09 08:09:08;;;;;;;80.67;29.90;;;;;;;1.85;93.09;100377.03;125982;1097;104149;-79
2021/12/09 08:11:43;;;;;;;91.60;31.73;;;;;;;1.90;93.43;100369.58;126102;1099;104153;-83
2021/12/09 08:14:19;;;;;;;77.07;30.77;;;;;;;1.95;93.14;100374.29;126010;1098;104149;-77
2021/12/09 08:17:10;;;;;;;74.13;29.37;;;;;;;1.96;93.28;100370.92;126068;1099;104364;-78
2021/12/09 08:19:43;;;;;;;86.50;32.87;;;;;;;2.02;92.82;100374.70;126083;1099;104245;-81
2021/12/09 08:22:16;;;;;;;101.67;37.87;;;;;;;2.13;93.47;100371.14;126142;1099;104156;-80
2021/12/09 08:24:58;;;;;;;83.43;31.17;;;;;;;2.23;92.90;100378.74;125924;1099;104236;-79
2021/12/09 08:27:34;;;;;;;94.83;35.38;;;;;;;2.28;93.11;100379.05;126105;1097;104427;-79
2021/12/09 08:30:09;;;;;;;95.07;34.40;;;;;;;2.34;93.45;100384.64;126223;1099;105374;-80
2021/12/09 08:32:42;;;;;;;76.63;28.83;;;;;;;2.40;92.80;100377.28;126065;1099;104224;-81
2021/12/09 08:35:16;;;;;;;68.57;28.05;;;;;;;2.41;92.51;100375.58;126057;1099;104195;-81
2021/12/09 08:37:50;;;;;;;85.23;31.93;;;;;;;2.43;92.48;100372.30;126103;1099;104191;-80
2021/12/09 08:40:24;;;;;;;98.20;34.73;;;;;;;2.54;92.62;100373.02;126013;1099;104182;-79
2021/12/09 08:42:57;;;;;;;99.60;38.08;;;;;;;2.67;93.52;100378.17;125988;1099;104251;-79
2021/12/09 08:45:30;;;;;;;76.70;32.40;;;;;;;2.72;93.04;100380.19;125837;1099;104174;-80
2021/12/09 08:48:05;;;;;;;71.15;28.87;;;;;;;2.72;92.11;100382.77;125935;1099;102293;-80
2021/12/09 08:50:39;;;;;;;78.87;32.10;;;;;;;2.74;92.37;100379.46;125907;1098;104201;-80
2021/12/09 08:53:16;;;;;;;79.30;32.00;;;;;;;2.80;92.74;100387.64;126028;1098;104176;-81
2021/12/09 08:55:51;;;;;;;65.05;28.50;;;;;;;2.76;92.73;100388.26;126246;1099;104290;-80
2021/12/09 08:58:24;;;;;;;;;;;;;;;2.73;92.90;100387.14;126028;1099;104149;-80
2021/12/09 09:01:00;;;;;;;67.07;29.53;;;;;;;2.71;92.26;100387.03;125975;1097;104290;-80
2021/12/09 09:03:34;;;;;;;73.03;30.30;;;;;;;2.73;92.88;100382.87;126229;1099;104149;-81
2021/12/09 09:06:10;;;;;;;84.13;34.43;;;;;;;2.76;92.71;100385.66;126218;1099;104175;-81
2021/12/09 09:08:41;;;;;;;;;;;;;;;2.77;92.93;100390.03;126078;1099;104217;-81
2021/12/09 09:11:14;;;;;;;72.57;30.73;;;;;;;2.78;92.62;100377.98;125933;1099;102820;-81
2021/12/09 09:13:48;;;;;;;69.85;28.85;;;;;;;2.82;93.02;100380.88;126015;1099;104191;-82
2021/12/09 09:16:22;;;;;;;79.63;33.63;;;;;;;2.84;93.00;100379.27;125867;1099;104223;-81
2021/12/09 09:18:57;;;;;;;73.77;29.97;;;;;;;2.92;92.71;100376.30;125777;1099;104210;-81
2021/12/09 09:21:32;;;;;;;56.90;26.13;;;;;;;2.90;92.66;100367.50;125772;1099;104207;-81
2021/12/09 09:24:09;;;;;;;63.93;29.93;;;;;;;2.89;92.30;100364.02;126042;1099;104277;-81
2021/12/09 09:26:45;;;;;;;66.27;29.50;;;;;;;2.93;92.63;100367.69;125928;1099;104245;-82
2021/12/09 09:29:21;;;;;;;65.93;30.73;;;;;;;2.91;92.26;100365.00;126180;1099;104210;-81
2021/12/09 09:31:56;;;;;;;79.40;35.27;;;;;;;2.96;92.97;100370.48;126069;1099;104283;-81
2021/12/09 09:34:28;;;;;;;75.87;32.33;;;;;;;3.00;92.98;100359.52;125921;1099;104178;-80
2021/12/09 09:37:01;;;;;;;85.40;35.63;;;;;;;3.10;92.45;100359.32;126086;1099;101918;-81
2021/12/09 09:39:42;;;;;;;68.50;31.13;;;;;;;3.11;92.33;100360.20;126255;1099;104086;-81
2021/12/09 09:42:34;;;;;;;72.37;31.03;;;;;;;3.06;92.53;100365.09;125952;1099;104203;-81
2021/12/09 09:45:11;;;;;;;61.23;28.53;;;;;;;3.05;92.50;100360.70;126084;1099;104280;-82
2021/12/09 09:47:50;;;;;;;85.47;36.40;;;;;;;3.09;92.24;100365.30;126049;1099;104788;-82
2021/12/09 09:50:26;;;;;;;90.80;37.33;;;;;;;3.17;92.99;100358.00;125953;1099;104316;-81
2021/12/09 09:53:02;;;;;;;103.30;41.93;;;;;;;3.25;93.40;100361.96;126140;1099;104146;-80
2021/12/09 09:55:41;;;;;;;113.23;45.53;;;;;;;3.34;93.28;100353.88;126070;1099;104216;-81
2021/12/09 09:58:14;;;;;;;118.73;48.53;;;;;;;3.41;93.13;100362.13;126043;1099;104624;-80
2021/12/09 10:00:51;;;;;;;131.07;47.20;;;;;;;3.45;93.05;100352.83;126024;1099;104225;-80
2021/12/09 10:03:29;;;;;;;120.80;47.90;;;;;;;3.44;92.91;100350.14;126208;1099;104152;-81
2021/12/09 10:06:04;;;;;;;130.60;50.23;;;;;;;3.47;92.78;100346.03;126284;1099;104230;-81
2021/12/09 10:08:41;;;;;;;130.23;48.77;;;;;;;3.52;92.96;100346.31;126165;1098;104162;-81
2021/12/09 10:11:17;;;;;;;112.87;43.93;;;;;;;3.55;92.27;100341.31;126197;1099;104157;-82
2021/12/09 10:13:52;;;;;;;122.97;47.97;;;;;;;3.51;92.61;100348.02;126310;1099;104146;-81
2021/12/09 10:16:27;;;;;;;121.90;48.33;;;;;;;3.53;92.57;100348.11;126079;1099;104277;-82
2021/12/09 10:19:17;;;;;;;134.70;50.23;;;;;;;3.60;93.01;100345.98;126314;1099;104267;-81
2021/12/09 10:22:16;;;;;;;110.70;41.87;;;;;;;3.64;92.46;100347.06;125780;1099;104169;-82
2021/12/09 10:24:52;;;;;;;127.63;47.07;;;;;;;3.63;92.75;100350.48;125878;1099;104184;-82
2021/12/09 10:27:30;;;;;;;134.53;50.93;;;;;;;3.65;92.63;100347.98;125946;1099;104336;-83
2021/12/09 10:30:20;;;;;;;130.60;48.87;;;;;;;3.70;92.61;100349.14;126157;1099;104242;-81
2021/12/09 10:33:05;;;;;;;145.97;53.23;;;;;;;3.84;92.41;100356.06;126182;1099;104348;-82
2021/12/09 10:35:43;;;;;;;194.93;78.60;;;;;;;4.07;92.90;100346.16;125485;1099;104341;-81
2021/12/09 10:38:16;;;;;;;167.70;64.17;;;;;;;4.22;92.91;100353.94;125995;1099;104187;-80
2021/12/09 10:40:49;;;;;;;180.03;67.72;;;;;;;4.32;92.48;100345.89;126117;1099;104211;-81
2021/12/09 10:43:21;;;;;;;168.47;66.77;;;;;;;4.38;92.60;100361.84;126164;1099;104201;-82
2021/12/09 10:45:54;;;;;;;171.10;66.53;;;;;;;4.46;92.55;100363.17;126081;1099;104272;-81
2021/12/09 10:48:43;;;;;;;132.67;55.50;;;;;;;4.42;92.25;100360.30;126057;1099;104225;-80
2021/12/09 10:51:25;;;;;;;145.87;57.13;;;;;;;4.28;91.89;100368.17;125954;1099;104144;-79
2021/12/09 10:53:58;;;;;;;179.50;77.07;;;;;;;4.20;92.38;100351.25;126124;1099;104146;-79
2021/12/09 10:56:33;;;;;;;156.60;63.40;;;;;;;4.19;92.57;100348.56;125913;1099;104203;-80
2021/12/09 10:59:05;;;;;;;;;;;;;;;4.21;92.75;100352.17;125891;1099;104220;-81
2021/12/09 11:01:39;;;;;;;160.93;62.07;;;;;;;4.26;93.01;100346.42;125931;1099;104159;-82
2021/12/09 11:04:10;;;;;;;;;;;;;;;4.35;92.58;100345.16;126048;1099;104354;-82
2021/12/09 11:06:46;;;;;;;170.10;63.93;;;;;;;4.38;92.48;100340.14;125827;1099;104281;-82
2021/12/09 11:09:33;;;;;;;177.10;69.37;;;;;;;4.38;92.74;100341.05;125711;1099;104178;-82
2021/12/09 11:12:07;;;;;;;180.87;71.70;;;;;;;4.45;92.43;100350.09;127075;1098;101762;-82
2021/12/09 11:14:58;;;;;;;193.10;71.50;;;;;;;4.53;93.32;100350.53;125661;1099;109444;-81
2021/12/09 11:18:12;;;;;;;158.80;62.67;;;;;;;4.48;91.98;100352.86;127031;1099;101536;-82
2021/12/09 11:20:56;;;;;;;150.77;59.43;;;;;;;4.36;92.06;100350.44;125689;1099;104195;-81
2021/12/09 11:23:35;;;;;;;196.43;71.80;;;;;;;4.40;92.36;100354.13;125610;1099;104178;-80
2021/12/09 11:26:35;;;;;;;163.20;63.00;;;;;;;4.44;92.28;100345.69;125739;1099;104203;-80
2021/12/09 11:29:11;;;;;;;152.33;59.77;;;;;;;4.50;92.24;100356.44;125736;1099;104178;-81
2021/12/09 11:31:56;;;;;;;154.77;60.03;;;;;;;4.54;92.76;100353.22;125704;1100;104350;-80
2021/12/09 11:34:36;;;;;;;142.80;57.95;;;;;;;4.56;92.94;100356.79;125623;1099;104358;-80
2021/12/09 11:37:37;;;;;;;126.70;52.20;;;;;;;4.61;92.68;100357.05;125718;1099;104389;-79
2021/12/09 11:40:49;;;;;;;125.63;48.60;;;;;;;4.58;91.81;100352.59;125768;1099;104194;-79
2021/12/09 11:44:04;;;;;;;139.80;53.00;;;;;;;4.57;92.06;100350.80;124928;1102;104408;-80